sensor_id;sensor_type;location;lat;lon;timestamp;P1;durP1;ratioP1;P2;durP2;ratioP2
73337;SDS011;61575;49.908;35.556;2023-12-29T00:02:49;11.00;;;5.97;;
73337;SDS011;61575;49.908;35.556;2023-12-29T00:05:52;12.40;;;5.87;;
73337;SDS011;61575;49.908;35.556;2023-12-29T00:08:54;13.90;;;5.57;;
73337;SDS011;61575;49.908;35.556;2023-12-29T00:11:56;16.13;;;5.77;;
73337;SDS011;61575;49.908;35.556;2023-12-29T00:14:58;12.37;;;5.93;;
73337;SDS011;61575;49.908;35.556;2023-12-29T00:18:00;12.03;;;5.33;;
73337;SDS011;61575;49.908;35.556;2023-12-29T00:21:02;12.15;;;5.82;;
73337;SDS011;61575;49.908;35.556;2023-12-29T00:24:08;10.88;;;4.82;;
73337;SDS011;61575;49.908;35.556;2023-12-29T00:27:10;11.60;;;5.07;;
73337;SDS011;61575;49.908;35.556;2023-12-29T00:30:12;12.52;;;5.30;;
73337;SDS011;61575;49.908;35.556;2023-12-29T00:33:14;11.90;;;5.55;;
73337;SDS011;61575;49.908;35.556;2023-12-29T00:36:17;12.23;;;5.50;;
73337;SDS011;61575;49.908;35.556;2023-12-29T00:39:20;11.75;;;5.63;;
73337;SDS011;61575;49.908;35.556;2023-12-29T00:42:30;12.15;;;6.10;;
73337;SDS011;61575;49.908;35.556;2023-12-29T00:45:33;14.07;;;6.30;;
73337;SDS011;61575;49.908;35.556;2023-12-29T00:48:37;12.77;;;6.15;;
73337;SDS011;61575;49.908;35.556;2023-12-29T00:51:41;12.65;;;5.70;;
73337;SDS011;61575;49.908;35.556;2023-12-29T00:54:43;10.70;;;5.13;;
73337;SDS011;61575;49.908;35.556;2023-12-29T00:57:45;15.07;;;7.00;;
73337;SDS011;61575;49.908;35.556;2023-12-29T01:00:47;12.47;;;5.57;;
73337;SDS011;61575;49.908;35.556;2023-12-29T01:03:50;12.95;;;5.63;;
73337;SDS011;61575;49.908;35.556;2023-12-29T01:06:56;11.32;;;4.95;;
73337;SDS011;61575;49.908;35.556;2023-12-29T01:09:58;12.00;;;5.15;;
73337;SDS011;61575;49.908;35.556;2023-12-29T01:13:01;13.18;;;5.95;;
73337;SDS011;61575;49.908;35.556;2023-12-29T01:16:04;10.98;;;5.78;;
73337;SDS011;61575;49.908;35.556;2023-12-29T01:19:06;13.13;;;5.90;;
73337;SDS011;61575;49.908;35.556;2023-12-29T01:22:08;11.40;;;4.93;;
73337;SDS011;61575;49.908;35.556;2023-12-29T01:25:10;13.02;;;5.93;;
73337;SDS011;61575;49.908;35.556;2023-12-29T01:28:13;13.02;;;5.60;;
73337;SDS011;61575;49.908;35.556;2023-12-29T01:31:16;12.88;;;6.00;;
73337;SDS011;61575;49.908;35.556;2023-12-29T01:34:18;15.43;;;6.07;;
73337;SDS011;61575;49.908;35.556;2023-12-29T01:37:20;11.30;;;5.27;;
73337;SDS011;61575;49.908;35.556;2023-12-29T01:40:22;13.37;;;6.17;;
73337;SDS011;61575;49.908;35.556;2023-12-29T01:43:25;13.85;;;5.72;;
73337;SDS011;61575;49.908;35.556;2023-12-29T01:46:36;13.20;;;6.00;;
73337;SDS011;61575;49.908;35.556;2023-12-29T01:49:38;12.38;;;5.75;;
73337;SDS011;61575;49.908;35.556;2023-12-29T01:52:42;12.82;;;5.82;;
73337;SDS011;61575;49.908;35.556;2023-12-29T01:55:46;14.73;;;6.55;;
73337;SDS011;61575;49.908;35.556;2023-12-29T02:01:51;13.82;;;5.97;;
73337;SDS011;61575;49.908;35.556;2023-12-29T02:04:54;13.98;;;6.43;;
73337;SDS011;61575;49.908;35.556;2023-12-29T02:07:56;15.43;;;6.72;;
73337;SDS011;61575;49.908;35.556;2023-12-29T02:11:00;11.30;;;6.35;;
73337;SDS011;61575;49.908;35.556;2023-12-29T02:14:02;15.07;;;6.33;;
73337;SDS011;61575;49.908;35.556;2023-12-29T02:20:14;15.45;;;6.55;;
73337;SDS011;61575;49.908;35.556;2023-12-29T02:26:19;14.68;;;5.72;;
73337;SDS011;61575;49.908;35.556;2023-12-29T02:29:24;13.35;;;6.22;;
73337;SDS011;61575;49.908;35.556;2023-12-29T02:32:27;14.93;;;6.93;;
73337;SDS011;61575;49.908;35.556;2023-12-29T02:35:33;13.13;;;6.13;;
73337;SDS011;61575;49.908;35.556;2023-12-29T02:38:39;15.20;;;6.47;;
73337;SDS011;61575;49.908;35.556;2023-12-29T02:41:43;15.45;;;6.53;;
73337;SDS011;61575;49.908;35.556;2023-12-29T02:44:45;15.13;;;7.13;;
73337;SDS011;61575;49.908;35.556;2023-12-29T02:47:48;13.83;;;6.60;;
73337;SDS011;61575;49.908;35.556;2023-12-29T02:50:50;14.45;;;6.63;;
73337;SDS011;61575;49.908;35.556;2023-12-29T02:53:52;12.57;;;6.33;;
73337;SDS011;61575;49.908;35.556;2023-12-29T02:56:54;14.37;;;6.40;;
73337;SDS011;61575;49.908;35.556;2023-12-29T02:59:57;14.57;;;7.32;;
73337;SDS011;61575;49.908;35.556;2023-12-29T03:03:00;13.88;;;6.35;;
73337;SDS011;61575;49.908;35.556;2023-12-29T03:06:03;13.05;;;6.53;;
73337;SDS011;61575;49.908;35.556;2023-12-29T03:09:05;16.20;;;6.45;;
73337;SDS011;61575;49.908;35.556;2023-12-29T03:12:07;13.00;;;6.63;;
73337;SDS011;61575;49.908;35.556;2023-12-29T03:15:09;17.15;;;7.07;;
73337;SDS011;61575;49.908;35.556;2023-12-29T03:18:11;14.67;;;6.70;;
73337;SDS011;61575;49.908;35.556;2023-12-29T03:21:14;19.95;;;6.80;;
73337;SDS011;61575;49.908;35.556;2023-12-29T03:24:16;14.98;;;7.25;;
73337;SDS011;61575;49.908;35.556;2023-12-29T03:27:19;14.20;;;6.50;;
73337;SDS011;61575;49.908;35.556;2023-12-29T03:30:21;14.77;;;7.07;;
73337;SDS011;61575;49.908;35.556;2023-12-29T03:33:23;15.00;;;6.60;;
73337;SDS011;61575;49.908;35.556;2023-12-29T03:36:25;15.35;;;6.85;;
73337;SDS011;61575;49.908;35.556;2023-12-29T03:39:27;16.10;;;7.07;;
73337;SDS011;61575;49.908;35.556;2023-12-29T03:42:30;13.32;;;5.97;;
73337;SDS011;61575;49.908;35.556;2023-12-29T03:45:32;16.97;;;7.33;;
73337;SDS011;61575;49.908;35.556;2023-12-29T03:48:34;14.03;;;7.20;;
73337;SDS011;61575;49.908;35.556;2023-12-29T03:51:36;13.88;;;6.88;;
73337;SDS011;61575;49.908;35.556;2023-12-29T03:54:39;15.65;;;7.25;;
73337;SDS011;61575;49.908;35.556;2023-12-29T03:57:44;15.10;;;7.13;;
73337;SDS011;61575;49.908;35.556;2023-12-29T04:00:46;13.00;;;6.25;;
73337;SDS011;61575;49.908;35.556;2023-12-29T04:03:48;15.30;;;6.38;;
73337;SDS011;61575;49.908;35.556;2023-12-29T04:06:51;15.50;;;7.05;;
73337;SDS011;61575;49.908;35.556;2023-12-29T04:09:53;14.80;;;7.10;;
73337;SDS011;61575;49.908;35.556;2023-12-29T04:12:55;17.33;;;7.15;;
73337;SDS011;61575;49.908;35.556;2023-12-29T04:15:57;15.20;;;6.77;;
73337;SDS011;61575;49.908;35.556;2023-12-29T04:18:59;17.58;;;7.13;;
73337;SDS011;61575;49.908;35.556;2023-12-29T04:22:01;14.68;;;6.97;;
73337;SDS011;61575;49.908;35.556;2023-12-29T04:25:05;15.23;;;6.95;;
73337;SDS011;61575;49.908;35.556;2023-12-29T04:28:09;15.35;;;6.65;;
73337;SDS011;61575;49.908;35.556;2023-12-29T04:31:11;14.57;;;7.10;;
73337;SDS011;61575;49.908;35.556;2023-12-29T04:34:14;14.57;;;6.55;;
73337;SDS011;61575;49.908;35.556;2023-12-29T04:37:16;15.68;;;6.30;;
73337;SDS011;61575;49.908;35.556;2023-12-29T04:40:19;15.10;;;7.22;;
73337;SDS011;61575;49.908;35.556;2023-12-29T04:43:21;14.55;;;6.70;;
73337;SDS011;61575;49.908;35.556;2023-12-29T04:46:23;15.00;;;6.72;;
73337;SDS011;61575;49.908;35.556;2023-12-29T04:49:25;16.03;;;6.70;;
73337;SDS011;61575;49.908;35.556;2023-12-29T04:52:28;13.38;;;6.80;;
73337;SDS011;61575;49.908;35.556;2023-12-29T04:55:30;15.63;;;6.68;;
73337;SDS011;61575;49.908;35.556;2023-12-29T04:58:32;14.37;;;7.30;;
73337;SDS011;61575;49.908;35.556;2023-12-29T05:01:34;13.83;;;7.13;;
73337;SDS011;61575;49.908;35.556;2023-12-29T05:04:36;14.35;;;7.38;;
73337;SDS011;61575;49.908;35.556;2023-12-29T05:07:40;14.40;;;7.28;;
73337;SDS011;61575;49.908;35.556;2023-12-29T05:10:42;17.48;;;7.43;;
73337;SDS011;61575;49.908;35.556;2023-12-29T05:13:44;16.38;;;7.43;;
73337;SDS011;61575;49.908;35.556;2023-12-29T05:16:47;15.17;;;6.77;;
73337;SDS011;61575;49.908;35.556;2023-12-29T05:19:49;15.85;;;7.38;;
73337;SDS011;61575;49.908;35.556;2023-12-29T05:22:51;16.80;;;7.50;;
73337;SDS011;61575;49.908;35.556;2023-12-29T05:25:53;17.63;;;7.70;;
73337;SDS011;61575;49.908;35.556;2023-12-29T05:28:55;15.47;;;7.60;;
73337;SDS011;61575;49.908;35.556;2023-12-29T05:31:57;10.93;;;5.37;;
73337;SDS011;61575;49.908;35.556;2023-12-29T05:34:59;13.97;;;6.77;;
73337;SDS011;61575;49.908;35.556;2023-12-29T05:38:01;19.90;;;7.70;;
73337;SDS011;61575;49.908;35.556;2023-12-29T05:41:03;16.63;;;8.40;;
73337;SDS011;61575;49.908;35.556;2023-12-29T05:44:06;16.42;;;7.65;;
73337;SDS011;61575;49.908;35.556;2023-12-29T05:47:08;15.13;;;6.93;;
73337;SDS011;61575;49.908;35.556;2023-12-29T05:50:11;16.65;;;8.00;;
73337;SDS011;61575;49.908;35.556;2023-12-29T05:53:13;18.10;;;7.75;;
73337;SDS011;61575;49.908;35.556;2023-12-29T05:56:16;16.80;;;7.50;;
73337;SDS011;61575;49.908;35.556;2023-12-29T05:59:18;16.50;;;7.57;;
73337;SDS011;61575;49.908;35.556;2023-12-29T06:02:21;18.13;;;7.93;;
73337;SDS011;61575;49.908;35.556;2023-12-29T06:05:23;17.57;;;7.93;;
73337;SDS011;61575;49.908;35.556;2023-12-29T06:08:25;18.03;;;8.43;;
73337;SDS011;61575;49.908;35.556;2023-12-29T06:11:27;17.93;;;8.13;;
73337;SDS011;61575;49.908;35.556;2023-12-29T06:14:29;16.93;;;7.57;;
73337;SDS011;61575;49.908;35.556;2023-12-29T06:17:31;15.50;;;8.23;;
73337;SDS011;61575;49.908;35.556;2023-12-29T06:20:34;16.08;;;7.68;;
73337;SDS011;61575;49.908;35.556;2023-12-29T06:23:37;21.17;;;9.73;;
73337;SDS011;61575;49.908;35.556;2023-12-29T06:26:39;18.20;;;8.82;;
73337;SDS011;61575;49.908;35.556;2023-12-29T06:29:46;16.63;;;7.88;;
73337;SDS011;61575;49.908;35.556;2023-12-29T06:32:48;23.20;;;8.20;;
73337;SDS011;61575;49.908;35.556;2023-12-29T06:35:50;17.60;;;7.35;;
73337;SDS011;61575;49.908;35.556;2023-12-29T06:38:53;15.85;;;7.97;;
73337;SDS011;61575;49.908;35.556;2023-12-29T06:41:55;16.58;;;7.80;;
73337;SDS011;61575;49.908;35.556;2023-12-29T06:44:57;15.83;;;7.63;;
73337;SDS011;61575;49.908;35.556;2023-12-29T06:47:59;14.97;;;7.63;;
73337;SDS011;61575;49.908;35.556;2023-12-29T06:51:02;16.90;;;7.82;;
73337;SDS011;61575;49.908;35.556;2023-12-29T06:54:04;18.25;;;8.40;;
73337;SDS011;61575;49.908;35.556;2023-12-29T06:57:06;15.80;;;7.97;;
73337;SDS011;61575;49.908;35.556;2023-12-29T07:00:09;17.55;;;9.73;;
73337;SDS011;61575;49.908;35.556;2023-12-29T07:03:14;15.93;;;7.82;;
73337;SDS011;61575;49.908;35.556;2023-12-29T07:06:16;19.52;;;8.30;;
73337;SDS011;61575;49.908;35.556;2023-12-29T07:09:19;20.13;;;8.75;;
73337;SDS011;61575;49.908;35.556;2023-12-29T07:12:21;21.53;;;9.20;;
73337;SDS011;61575;49.908;35.556;2023-12-29T07:15:23;14.73;;;8.07;;
73337;SDS011;61575;49.908;35.556;2023-12-29T07:18:25;17.70;;;8.47;;
73337;SDS011;61575;49.908;35.556;2023-12-29T07:21:27;18.60;;;9.60;;
73337;SDS011;61575;49.908;35.556;2023-12-29T07:24:29;18.03;;;9.70;;
73337;SDS011;61575;49.908;35.556;2023-12-29T07:27:32;19.30;;;8.88;;
73337;SDS011;61575;49.908;35.556;2023-12-29T07:30:34;20.10;;;9.53;;
73337;SDS011;61575;49.908;35.556;2023-12-29T07:33:36;15.82;;;6.90;;
73337;SDS011;61575;49.908;35.556;2023-12-29T07:36:39;18.23;;;8.85;;
73337;SDS011;61575;49.908;35.556;2023-12-29T07:39:42;17.13;;;8.60;;
73337;SDS011;61575;49.908;35.556;2023-12-29T07:42:45;19.33;;;9.50;;
73337;SDS011;61575;49.908;35.556;2023-12-29T07:45:50;17.40;;;8.45;;
73337;SDS011;61575;49.908;35.556;2023-12-29T07:48:52;18.90;;;8.70;;
73337;SDS011;61575;49.908;35.556;2023-12-29T07:51:55;20.38;;;9.63;;
73337;SDS011;61575;49.908;35.556;2023-12-29T07:55:01;18.35;;;8.25;;
73337;SDS011;61575;49.908;35.556;2023-12-29T07:58:03;19.53;;;8.90;;
73337;SDS011;61575;49.908;35.556;2023-12-29T08:01:05;17.50;;;8.27;;
73337;SDS011;61575;49.908;35.556;2023-12-29T08:04:08;17.33;;;8.52;;
73337;SDS011;61575;49.908;35.556;2023-12-29T08:07:12;14.85;;;7.95;;
73337;SDS011;61575;49.908;35.556;2023-12-29T08:10:15;18.13;;;7.87;;
73337;SDS011;61575;49.908;35.556;2023-12-29T08:13:17;15.20;;;8.00;;
73337;SDS011;61575;49.908;35.556;2023-12-29T08:16:19;16.83;;;7.90;;
73337;SDS011;61575;49.908;35.556;2023-12-29T08:19:21;14.75;;;7.38;;
73337;SDS011;61575;49.908;35.556;2023-12-29T08:22:24;16.15;;;7.57;;
73337;SDS011;61575;49.908;35.556;2023-12-29T08:25:26;16.75;;;7.28;;
73337;SDS011;61575;49.908;35.556;2023-12-29T08:28:28;14.30;;;6.67;;
73337;SDS011;61575;49.908;35.556;2023-12-29T08:31:30;16.60;;;7.50;;
73337;SDS011;61575;49.908;35.556;2023-12-29T08:34:32;15.68;;;7.35;;
73337;SDS011;61575;49.908;35.556;2023-12-29T08:37:36;16.73;;;8.40;;
73337;SDS011;61575;49.908;35.556;2023-12-29T08:40:38;14.93;;;7.20;;
73337;SDS011;61575;49.908;35.556;2023-12-29T08:43:40;16.13;;;7.13;;
73337;SDS011;61575;49.908;35.556;2023-12-29T08:46:42;14.98;;;8.32;;
73337;SDS011;61575;49.908;35.556;2023-12-29T08:49:44;17.15;;;7.40;;
73337;SDS011;61575;49.908;35.556;2023-12-29T08:52:48;16.63;;;7.60;;
73337;SDS011;61575;49.908;35.556;2023-12-29T08:55:50;18.50;;;7.70;;
73337;SDS011;61575;49.908;35.556;2023-12-29T08:58:52;16.27;;;7.40;;
73337;SDS011;61575;49.908;35.556;2023-12-29T09:01:55;15.90;;;7.60;;
73337;SDS011;61575;49.908;35.556;2023-12-29T09:04:57;15.52;;;8.07;;
73337;SDS011;61575;49.908;35.556;2023-12-29T09:07:59;19.33;;;8.03;;
73337;SDS011;61575;49.908;35.556;2023-12-29T09:11:02;13.80;;;7.32;;
73337;SDS011;61575;49.908;35.556;2023-12-29T09:14:06;15.05;;;7.50;;
73337;SDS011;61575;49.908;35.556;2023-12-29T09:17:08;14.70;;;7.10;;
73337;SDS011;61575;49.908;35.556;2023-12-29T09:20:10;15.48;;;7.22;;
73337;SDS011;61575;49.908;35.556;2023-12-29T09:23:13;16.70;;;8.30;;
73337;SDS011;61575;49.908;35.556;2023-12-29T09:26:15;19.65;;;9.40;;
73337;SDS011;61575;49.908;35.556;2023-12-29T09:29:17;16.77;;;8.47;;
73337;SDS011;61575;49.908;35.556;2023-12-29T09:32:19;16.47;;;7.93;;
73337;SDS011;61575;49.908;35.556;2023-12-29T09:35:22;18.15;;;8.77;;
73337;SDS011;61575;49.908;35.556;2023-12-29T09:38:24;19.60;;;9.13;;
73337;SDS011;61575;49.908;35.556;2023-12-29T09:41:26;16.23;;;8.83;;
73337;SDS011;61575;49.908;35.556;2023-12-29T09:44:33;16.65;;;7.95;;
73337;SDS011;61575;49.908;35.556;2023-12-29T09:47:41;15.00;;;7.80;;
73337;SDS011;61575;49.908;35.556;2023-12-29T09:50:44;15.65;;;8.10;;
73337;SDS011;61575;49.908;35.556;2023-12-29T09:53:47;17.15;;;8.35;;
73337;SDS011;61575;49.908;35.556;2023-12-29T09:56:50;18.58;;;9.35;;
73337;SDS011;61575;49.908;35.556;2023-12-29T09:59:52;17.67;;;8.48;;
73337;SDS011;61575;49.908;35.556;2023-12-29T10:02:56;17.33;;;8.30;;
73337;SDS011;61575;49.908;35.556;2023-12-29T10:06:03;15.73;;;8.80;;
73337;SDS011;61575;49.908;35.556;2023-12-29T10:09:10;16.67;;;8.73;;
73337;SDS011;61575;49.908;35.556;2023-12-29T10:12:14;18.08;;;8.50;;
73337;SDS011;61575;49.908;35.556;2023-12-29T10:15:18;19.23;;;8.52;;
73337;SDS011;61575;49.908;35.556;2023-12-29T10:22:10;17.88;;;8.52;;
73337;SDS011;61575;49.908;35.556;2023-12-29T10:25:17;13.65;;;6.95;;
73337;SDS011;61575;49.908;35.556;2023-12-29T10:28:19;21.17;;;9.10;;
73337;SDS011;61575;49.908;35.556;2023-12-29T10:34:25;14.43;;;6.95;;
73337;SDS011;61575;49.908;35.556;2023-12-29T10:37:31;16.95;;;7.90;;
73337;SDS011;61575;49.908;35.556;2023-12-29T10:40:33;15.87;;;8.17;;
73337;SDS011;61575;49.908;35.556;2023-12-29T10:43:35;16.67;;;8.17;;
73337;SDS011;61575;49.908;35.556;2023-12-29T10:46:37;18.13;;;8.77;;
73337;SDS011;61575;49.908;35.556;2023-12-29T10:49:40;14.98;;;8.20;;
73337;SDS011;61575;49.908;35.556;2023-12-29T10:52:43;18.00;;;8.70;;
73337;SDS011;61575;49.908;35.556;2023-12-29T10:55:46;18.65;;;8.32;;
73337;SDS011;61575;49.908;35.556;2023-12-29T10:58:59;16.50;;;8.68;;
73337;SDS011;61575;49.908;35.556;2023-12-29T11:02:05;17.00;;;9.00;;
73337;SDS011;61575;49.908;35.556;2023-12-29T11:05:10;17.30;;;8.45;;
73337;SDS011;61575;49.908;35.556;2023-12-29T11:08:19;16.90;;;8.57;;
73337;SDS011;61575;49.908;35.556;2023-12-29T11:11:22;18.90;;;8.45;;
73337;SDS011;61575;49.908;35.556;2023-12-29T11:14:25;18.33;;;9.85;;
73337;SDS011;61575;49.908;35.556;2023-12-29T11:17:27;18.55;;;9.20;;
73337;SDS011;61575;49.908;35.556;2023-12-29T11:20:32;18.25;;;9.88;;
73337;SDS011;61575;49.908;35.556;2023-12-29T11:23:37;19.98;;;9.63;;
73337;SDS011;61575;49.908;35.556;2023-12-29T11:29:43;17.48;;;8.32;;
73337;SDS011;61575;49.908;35.556;2023-12-29T11:33:02;20.13;;;9.80;;
73337;SDS011;61575;49.908;35.556;2023-12-29T11:36:16;18.88;;;9.38;;
73337;SDS011;61575;49.908;35.556;2023-12-29T11:42:42;17.92;;;9.77;;
73337;SDS011;61575;49.908;35.556;2023-12-29T11:45:46;16.45;;;9.23;;
73337;SDS011;61575;49.908;35.556;2023-12-29T11:48:55;18.07;;;9.47;;
73337;SDS011;61575;49.908;35.556;2023-12-29T11:52:05;17.88;;;9.50;;
73337;SDS011;61575;49.908;35.556;2023-12-29T11:58:25;21.02;;;10.63;;
73337;SDS011;61575;49.908;35.556;2023-12-29T12:01:34;15.95;;;8.90;;
73337;SDS011;61575;49.908;35.556;2023-12-29T12:04:38;16.35;;;9.38;;
73337;SDS011;61575;49.908;35.556;2023-12-29T12:10:47;20.30;;;11.83;;
73337;SDS011;61575;49.908;35.556;2023-12-29T12:13:50;22.10;;;12.00;;
73337;SDS011;61575;49.908;35.556;2023-12-29T12:16:52;20.40;;;11.13;;
73337;SDS011;61575;49.908;35.556;2023-12-29T12:20:13;26.92;;;13.05;;
73337;SDS011;61575;49.908;35.556;2023-12-29T12:23:18;20.65;;;11.65;;
73337;SDS011;61575;49.908;35.556;2023-12-29T12:26:21;22.52;;;11.48;;
73337;SDS011;61575;49.908;35.556;2023-12-29T12:29:27;20.73;;;11.30;;
73337;SDS011;61575;49.908;35.556;2023-12-29T12:32:29;18.05;;;10.23;;
73337;SDS011;61575;49.908;35.556;2023-12-29T12:35:31;19.77;;;9.77;;
73337;SDS011;61575;49.908;35.556;2023-12-29T12:38:34;23.92;;;11.93;;
73337;SDS011;61575;49.908;35.556;2023-12-29T12:41:36;39.50;;;20.75;;
73337;SDS011;61575;49.908;35.556;2023-12-29T12:44:41;43.97;;;20.67;;
73337;SDS011;61575;49.908;35.556;2023-12-29T12:47:52;29.65;;;15.13;;
73337;SDS011;61575;49.908;35.556;2023-12-29T12:51:02;24.27;;;13.00;;
73337;SDS011;61575;49.908;35.556;2023-12-29T12:57:07;28.10;;;14.20;;
73337;SDS011;61575;49.908;35.556;2023-12-29T13:00:10;26.35;;;13.45;;
73337;SDS011;61575;49.908;35.556;2023-12-29T13:03:13;23.92;;;13.15;;
73337;SDS011;61575;49.908;35.556;2023-12-29T13:06:17;30.05;;;14.95;;
73337;SDS011;61575;49.908;35.556;2023-12-29T13:09:19;23.08;;;12.93;;
73337;SDS011;61575;49.908;35.556;2023-12-29T13:12:22;25.42;;;12.60;;
73337;SDS011;61575;49.908;35.556;2023-12-29T13:15:24;26.60;;;11.53;;
73337;SDS011;61575;49.908;35.556;2023-12-29T13:18:29;25.13;;;11.17;;
73337;SDS011;61575;49.908;35.556;2023-12-29T13:21:33;26.63;;;13.48;;
73337;SDS011;61575;49.908;35.556;2023-12-29T13:24:35;23.63;;;13.03;;
73337;SDS011;61575;49.908;35.556;2023-12-29T13:27:44;21.95;;;11.35;;
73337;SDS011;61575;49.908;35.556;2023-12-29T13:30:46;22.73;;;11.05;;
73337;SDS011;61575;49.908;35.556;2023-12-29T13:33:51;22.33;;;11.02;;
73337;SDS011;61575;49.908;35.556;2023-12-29T13:37:02;20.25;;;11.20;;
73337;SDS011;61575;49.908;35.556;2023-12-29T13:43:37;27.10;;;12.25;;
73337;SDS011;61575;49.908;35.556;2023-12-29T13:46:45;26.27;;;12.38;;
73337;SDS011;61575;49.908;35.556;2023-12-29T13:49:48;25.73;;;12.18;;
73337;SDS011;61575;49.908;35.556;2023-12-29T13:52:52;27.25;;;12.77;;
73337;SDS011;61575;49.908;35.556;2023-12-29T13:56:04;28.48;;;12.63;;
73337;SDS011;61575;49.908;35.556;2023-12-29T13:59:10;23.83;;;11.20;;
73337;SDS011;61575;49.908;35.556;2023-12-29T14:02:19;20.30;;;11.10;;
73337;SDS011;61575;49.908;35.556;2023-12-29T14:08:53;27.08;;;11.25;;
73337;SDS011;61575;49.908;35.556;2023-12-29T14:15:04;23.90;;;10.80;;
73337;SDS011;61575;49.908;35.556;2023-12-29T14:21:26;24.33;;;10.57;;
73337;SDS011;61575;49.908;35.556;2023-12-29T14:24:28;23.45;;;11.57;;
73337;SDS011;61575;49.908;35.556;2023-12-29T14:27:30;26.08;;;11.93;;
73337;SDS011;61575;49.908;35.556;2023-12-29T14:30:33;22.45;;;11.32;;
73337;SDS011;61575;49.908;35.556;2023-12-29T14:33:35;23.95;;;12.55;;
73337;SDS011;61575;49.908;35.556;2023-12-29T14:36:41;24.60;;;11.27;;
73337;SDS011;61575;49.908;35.556;2023-12-29T14:39:48;21.63;;;10.73;;
73337;SDS011;61575;49.908;35.556;2023-12-29T14:42:51;21.02;;;10.57;;
73337;SDS011;61575;49.908;35.556;2023-12-29T14:45:53;20.47;;;10.27;;
73337;SDS011;61575;49.908;35.556;2023-12-29T14:52:01;19.35;;;9.38;;
73337;SDS011;61575;49.908;35.556;2023-12-29T14:58:06;23.13;;;11.32;;
73337;SDS011;61575;49.908;35.556;2023-12-29T15:01:08;23.38;;;10.88;;
73337;SDS011;61575;49.908;35.556;2023-12-29T15:04:11;24.20;;;11.05;;
73337;SDS011;61575;49.908;35.556;2023-12-29T15:07:16;25.27;;;11.63;;
73337;SDS011;61575;49.908;35.556;2023-12-29T15:10:19;26.23;;;12.93;;
73337;SDS011;61575;49.908;35.556;2023-12-29T15:13:21;23.50;;;11.50;;
73337;SDS011;61575;49.908;35.556;2023-12-29T15:16:24;24.17;;;11.30;;
73337;SDS011;61575;49.908;35.556;2023-12-29T15:19:26;21.27;;;11.00;;
73337;SDS011;61575;49.908;35.556;2023-12-29T15:22:28;21.75;;;11.68;;
73337;SDS011;61575;49.908;35.556;2023-12-29T15:25:30;25.85;;;12.75;;
73337;SDS011;61575;49.908;35.556;2023-12-29T15:28:32;25.57;;;12.67;;
73337;SDS011;61575;49.908;35.556;2023-12-29T15:31:34;25.67;;;11.77;;
73337;SDS011;61575;49.908;35.556;2023-12-29T15:34:37;23.38;;;11.63;;
73337;SDS011;61575;49.908;35.556;2023-12-29T15:37:39;23.67;;;13.45;;
73337;SDS011;61575;49.908;35.556;2023-12-29T15:40:41;25.77;;;12.63;;
73337;SDS011;61575;49.908;35.556;2023-12-29T15:43:43;22.63;;;10.97;;
73337;SDS011;61575;49.908;35.556;2023-12-29T15:46:45;22.00;;;10.93;;
73337;SDS011;61575;49.908;35.556;2023-12-29T15:49:48;25.90;;;11.67;;
73337;SDS011;61575;49.908;35.556;2023-12-29T15:52:50;25.77;;;11.90;;
73337;SDS011;61575;49.908;35.556;2023-12-29T15:55:54;26.77;;;13.00;;
73337;SDS011;61575;49.908;35.556;2023-12-29T15:58:56;27.97;;;13.50;;
73337;SDS011;61575;49.908;35.556;2023-12-29T16:01:59;28.13;;;12.90;;
73337;SDS011;61575;49.908;35.556;2023-12-29T16:05:01;26.67;;;12.03;;
73337;SDS011;61575;49.908;35.556;2023-12-29T16:08:03;26.52;;;12.30;;
73337;SDS011;61575;49.908;35.556;2023-12-29T16:11:05;27.40;;;12.23;;
73337;SDS011;61575;49.908;35.556;2023-12-29T16:14:08;25.80;;;12.52;;
73337;SDS011;61575;49.908;35.556;2023-12-29T16:17:10;27.73;;;11.83;;
73337;SDS011;61575;49.908;35.556;2023-12-29T16:20:12;24.53;;;11.70;;
73337;SDS011;61575;49.908;35.556;2023-12-29T16:23:14;22.98;;;11.68;;
73337;SDS011;61575;49.908;35.556;2023-12-29T16:26:16;26.17;;;12.03;;
73337;SDS011;61575;49.908;35.556;2023-12-29T16:29:28;24.67;;;12.00;;
73337;SDS011;61575;49.908;35.556;2023-12-29T16:32:30;23.80;;;12.43;;
73337;SDS011;61575;49.908;35.556;2023-12-29T16:35:35;24.50;;;12.45;;
73337;SDS011;61575;49.908;35.556;2023-12-29T16:38:37;25.25;;;12.25;;
73337;SDS011;61575;49.908;35.556;2023-12-29T16:41:40;23.73;;;11.43;;
73337;SDS011;61575;49.908;35.556;2023-12-29T16:44:45;25.08;;;12.35;;
73337;SDS011;61575;49.908;35.556;2023-12-29T16:47:47;25.25;;;12.25;;
73337;SDS011;61575;49.908;35.556;2023-12-29T16:50:49;26.53;;;12.57;;
73337;SDS011;61575;49.908;35.556;2023-12-29T16:53:51;26.43;;;12.83;;
73337;SDS011;61575;49.908;35.556;2023-12-29T16:56:54;25.90;;;11.90;;
73337;SDS011;61575;49.908;35.556;2023-12-29T16:59:56;29.08;;;13.38;;
73337;SDS011;61575;49.908;35.556;2023-12-29T17:02:58;28.58;;;13.50;;
73337;SDS011;61575;49.908;35.556;2023-12-29T17:06:00;25.48;;;12.63;;
73337;SDS011;61575;49.908;35.556;2023-12-29T17:09:02;24.57;;;12.47;;
73337;SDS011;61575;49.908;35.556;2023-12-29T17:12:05;24.90;;;11.88;;
73337;SDS011;61575;49.908;35.556;2023-12-29T17:15:07;26.88;;;13.25;;
73337;SDS011;61575;49.908;35.556;2023-12-29T17:18:10;30.70;;;13.30;;
73337;SDS011;61575;49.908;35.556;2023-12-29T17:21:12;30.85;;;13.52;;
73337;SDS011;61575;49.908;35.556;2023-12-29T17:24:15;30.97;;;13.43;;
73337;SDS011;61575;49.908;35.556;2023-12-29T17:27:19;28.48;;;13.73;;
73337;SDS011;61575;49.908;35.556;2023-12-29T17:30:21;31.13;;;15.30;;
73337;SDS011;61575;49.908;35.556;2023-12-29T17:33:23;30.60;;;13.85;;
73337;SDS011;61575;49.908;35.556;2023-12-29T17:36:26;30.92;;;13.35;;
73337;SDS011;61575;49.908;35.556;2023-12-29T17:39:28;32.17;;;15.07;;
73337;SDS011;61575;49.908;35.556;2023-12-29T17:42:30;28.00;;;12.13;;
73337;SDS011;61575;49.908;35.556;2023-12-29T17:45:32;26.27;;;12.70;;
73337;SDS011;61575;49.908;35.556;2023-12-29T17:48:34;29.47;;;12.87;;
73337;SDS011;61575;49.908;35.556;2023-12-29T17:51:36;28.90;;;13.85;;
73337;SDS011;61575;49.908;35.556;2023-12-29T17:54:40;32.27;;;14.47;;
73337;SDS011;61575;49.908;35.556;2023-12-29T17:57:43;26.60;;;12.70;;
73337;SDS011;61575;49.908;35.556;2023-12-29T18:00:45;28.07;;;12.80;;
73337;SDS011;61575;49.908;35.556;2023-12-29T18:03:47;30.08;;;14.23;;
73337;SDS011;61575;49.908;35.556;2023-12-29T18:06:51;26.85;;;12.52;;
73337;SDS011;61575;49.908;35.556;2023-12-29T18:10:07;28.00;;;13.07;;
73337;SDS011;61575;49.908;35.556;2023-12-29T18:13:10;29.15;;;12.90;;
73337;SDS011;61575;49.908;35.556;2023-12-29T18:16:14;28.00;;;12.85;;
73337;SDS011;61575;49.908;35.556;2023-12-29T18:22:24;30.17;;;12.95;;
73337;SDS011;61575;49.908;35.556;2023-12-29T18:25:27;29.17;;;13.63;;
73337;SDS011;61575;49.908;35.556;2023-12-29T18:28:30;27.30;;;14.32;;
73337;SDS011;61575;49.908;35.556;2023-12-29T18:31:32;28.03;;;13.20;;
73337;SDS011;61575;49.908;35.556;2023-12-29T18:34:34;31.57;;;14.47;;
73337;SDS011;61575;49.908;35.556;2023-12-29T18:37:39;29.13;;;13.40;;
73337;SDS011;61575;49.908;35.556;2023-12-29T18:40:41;27.52;;;13.20;;